This is the latest recevied weather packets stored in our database for station/object K7JGC-9. If no packets are shown the sender has not sent any weather packets the latest 10 day(s).
| Time | Temp. | Humidity | Pressure | Rain* | Wind** | Luminosity | Snow |
|---|---|---|---|---|---|---|---|
| 1777797992 | 12.78° C | 92% | 1013 hPa | 0 mm | - | 0 W/m² | - |
| 1777796189 | 13.33° C | 92% | 1013.2 hPa | 0 mm | - | 0 W/m² | - |
| 1777794386 | 13.33° C | 90% | 1013.1 hPa | 0 mm | - | 0 W/m² | - |
| 1777792585 | 13.89° C | 89% | 1013.1 hPa | 0 mm | - | 0 W/m² | - |
| 1777790780 | 14.44° C | 88% | 1013.2 hPa | 0 mm | - | 0 W/m² | - |
| 1777788977 | 15° C | 88% | 1013.1 hPa | 0 mm | - | 0 W/m² | - |
| 1777787174 | 15° C | 85% | 1012.8 hPa | 0 mm | - | 0 W/m² | - |
| 1777785373 | 15.56° C | 82% | 1013.1 hPa | 0 mm | - | 0 W/m² | - |
| 1777783573 | 16.11° C | 80% | 1013.2 hPa | 0 mm | - | 0 W/m² | - |
| 1777781771 | 17.22° C | 78% | 1013.2 hPa | 0 mm | - | 0 W/m² | - |
| 1777779967 | 17.78° C | 75% | 1013.2 hPa | 0 mm | - | 0 W/m² | - |
| 1777778164 | 18.33° C | 72% | 1012.8 hPa | 0 mm | - | 2 W/m² | - |
| 1777776362 | 18.89° C | 70% | 1012.7 hPa | 0 mm | - | 14 W/m² | - |
| 1777774560 | 21.11° C | 64% | 1012.4 hPa | 0 mm | - | 29 W/m² | - |
| 1777772757 | 21.67° C | 67% | 1011.6 hPa | 0 mm | - | 37 W/m² | - |
| 1777770958 | 22.22° C | 68% | 1011.6 hPa | 0 mm | - | 51 W/m² | - |
| 1777769156 | 22.78° C | 61% | 1011.7 hPa | 0 mm | - | 86 W/m² | - |
| 1777767355 | 22.22° C | 60% | 1011.8 hPa | 0 mm | - | 145 W/m² | - |
| 1777765553 | 21.67° C | 62% | 1012.1 hPa | 0 mm | - | 60 W/m² | - |
| 1777763750 | 21.67° C | 59% | 1012.2 hPa | 0 mm | - | 53 W/m² | - |
| 1777761945 | 20.56° C | 62% | 1012.9 hPa | 0 mm | - | 53 W/m² | - |
| 1777760144 | 21.11° C | 62% | 1013.5 hPa | 0 mm | - | 50 W/m² | - |
| 1777758343 | 21.11° C | 62% | 1013.9 hPa | 0 mm | - | 51 W/m² | - |
| 1777756538 | 20.56° C | 59% | 1014.2 hPa | 0 mm | - | 52 W/m² | - |
| 1777754738 | 19.44° C | 62% | 1015 hPa | 0 mm | - | 110 W/m² | - |
* Rain latest hour (hover to see other rain measurements)
** Current wind speed in m/s (hover to see current wind gust speed)